sensor_id;sensor_type;location;lat;lon;timestamp;P1;durP1;ratioP1;P2;durP2;ratioP2
3355;SDS011;1691;52.486;13.374;2023-03-21T00:01:52;10.73;;;9.80;;
3355;SDS011;1691;52.486;13.374;2023-03-21T00:04:22;10.90;;;10.00;;
3355;SDS011;1691;52.486;13.374;2023-03-21T00:06:54;11.47;;;10.17;;
3355;SDS011;1691;52.486;13.374;2023-03-21T00:09:21;10.67;;;9.67;;
3355;SDS011;1691;52.486;13.374;2023-03-21T00:11:49;11.57;;;10.43;;
3355;SDS011;1691;52.486;13.374;2023-03-21T00:14:16;11.70;;;10.67;;
3355;SDS011;1691;52.486;13.374;2023-03-21T00:16:47;11.90;;;10.77;;
3355;SDS011;1691;52.486;13.374;2023-03-21T00:19:17;20.37;;;12.87;;
3355;SDS011;1691;52.486;13.374;2023-03-21T00:21:46;11.23;;;10.13;;
3355;SDS011;1691;52.486;13.374;2023-03-21T00:24:34;16.90;;;10.90;;
3355;SDS011;1691;52.486;13.374;2023-03-21T00:27:02;11.57;;;10.50;;
3355;SDS011;1691;52.486;13.374;2023-03-21T00:29:49;12.13;;;10.43;;
3355;SDS011;1691;52.486;13.374;2023-03-21T00:32:16;11.53;;;10.47;;
3355;SDS011;1691;52.486;13.374;2023-03-21T00:34:44;12.60;;;11.40;;
3355;SDS011;1691;52.486;13.374;2023-03-21T00:37:27;11.43;;;10.40;;
3355;SDS011;1691;52.486;13.374;2023-03-21T00:39:54;14.60;;;11.37;;
3355;SDS011;1691;52.486;13.374;2023-03-21T00:42:21;12.50;;;11.30;;
3355;SDS011;1691;52.486;13.374;2023-03-21T00:44:49;12.00;;;10.80;;
3355;SDS011;1691;52.486;13.374;2023-03-21T00:47:16;22.00;;;11.50;;
3355;SDS011;1691;52.486;13.374;2023-03-21T00:49:43;12.33;;;11.17;;
3355;SDS011;1691;52.486;13.374;2023-03-21T00:52:10;15.73;;;12.40;;
3355;SDS011;1691;52.486;13.374;2023-03-21T00:54:47;15.50;;;12.73;;
3355;SDS011;1691;52.486;13.374;2023-03-21T00:57:14;14.20;;;12.80;;
3355;SDS011;1691;52.486;13.374;2023-03-21T00:59:42;20.07;;;14.30;;
3355;SDS011;1691;52.486;13.374;2023-03-21T01:02:09;13.97;;;12.67;;
3355;SDS011;1691;52.486;13.374;2023-03-21T01:04:40;15.33;;;13.50;;
3355;SDS011;1691;52.486;13.374;2023-03-21T01:07:07;15.77;;;12.90;;
3355;SDS011;1691;52.486;13.374;2023-03-21T01:09:34;21.03;;;13.90;;
3355;SDS011;1691;52.486;13.374;2023-03-21T01:12:01;14.97;;;13.50;;
3355;SDS011;1691;52.486;13.374;2023-03-21T01:14:29;15.53;;;13.60;;
3355;SDS011;1691;52.486;13.374;2023-03-21T01:16:56;16.50;;;14.50;;
3355;SDS011;1691;52.486;13.374;2023-03-21T01:19:23;15.53;;;14.10;;
3355;SDS011;1691;52.486;13.374;2023-03-21T01:22:09;15.53;;;14.00;;
3355;SDS011;1691;52.486;13.374;2023-03-21T01:24:37;14.47;;;12.80;;
3355;SDS011;1691;52.486;13.374;2023-03-21T01:27:17;20.73;;;15.03;;
3355;SDS011;1691;52.486;13.374;2023-03-21T01:29:44;15.83;;;14.23;;
3355;SDS011;1691;52.486;13.374;2023-03-21T01:32:11;17.60;;;13.77;;
3355;SDS011;1691;52.486;13.374;2023-03-21T01:34:38;17.17;;;13.20;;
3355;SDS011;1691;52.486;13.374;2023-03-21T01:37:05;16.17;;;14.53;;
3355;SDS011;1691;52.486;13.374;2023-03-21T01:39:32;22.27;;;16.70;;
3355;SDS011;1691;52.486;13.374;2023-03-21T01:42:00;18.17;;;15.87;;
3355;SDS011;1691;52.486;13.374;2023-03-21T01:44:27;21.40;;;18.17;;
3355;SDS011;1691;52.486;13.374;2023-03-21T01:46:54;23.77;;;18.67;;
3355;SDS011;1691;52.486;13.374;2023-03-21T01:49:40;22.70;;;18.80;;
3355;SDS011;1691;52.486;13.374;2023-03-21T01:52:12;22.57;;;19.17;;
3355;SDS011;1691;52.486;13.374;2023-03-21T01:54:58;25.20;;;17.70;;
3355;SDS011;1691;52.486;13.374;2023-03-21T01:57:29;21.03;;;18.90;;
3355;SDS011;1691;52.486;13.374;2023-03-21T02:00:12;24.40;;;19.47;;
3355;SDS011;1691;52.486;13.374;2023-03-21T02:02:42;22.27;;;19.73;;
3355;SDS011;1691;52.486;13.374;2023-03-21T02:05:35;34.57;;;21.20;;
3355;SDS011;1691;52.486;13.374;2023-03-21T02:08:38;21.40;;;19.10;;
3355;SDS011;1691;52.486;13.374;2023-03-21T02:11:06;27.23;;;20.47;;
3355;SDS011;1691;52.486;13.374;2023-03-21T02:13:37;23.27;;;20.80;;
3355;SDS011;1691;52.486;13.374;2023-03-21T02:27:23;32.27;;;24.03;;
3355;SDS011;1691;52.486;13.374;2023-03-21T02:38:53;33.50;;;23.57;;
3355;SDS011;1691;52.486;13.374;2023-03-21T02:46:56;26.73;;;21.80;;
3355;SDS011;1691;52.486;13.374;2023-03-21T02:52:07;26.73;;;21.80;;
3355;SDS011;1691;52.486;13.374;2023-03-21T02:54:53;27.47;;;21.70;;
3355;SDS011;1691;52.486;13.374;2023-03-21T02:57:23;39.33;;;23.80;;
3355;SDS011;1691;52.486;13.374;2023-03-21T03:00:02;27.33;;;21.90;;
3355;SDS011;1691;52.486;13.374;2023-03-21T03:02:41;42.40;;;23.93;;
3355;SDS011;1691;52.486;13.374;2023-03-21T03:05:16;29.43;;;23.50;;
3355;SDS011;1691;52.486;13.374;2023-03-21T03:11:33;32.87;;;23.93;;
3355;SDS011;1691;52.486;13.374;2023-03-21T03:17:23;33.10;;;23.80;;
3355;SDS011;1691;52.486;13.374;2023-03-21T03:23:11;34.77;;;23.23;;
3355;SDS011;1691;52.486;13.374;2023-03-21T03:25:46;37.90;;;24.13;;
3355;SDS011;1691;52.486;13.374;2023-03-21T03:28:50;33.87;;;23.80;;
3355;SDS011;1691;52.486;13.374;2023-03-21T03:31:22;37.97;;;25.27;;
3355;SDS011;1691;52.486;13.374;2023-03-21T03:33:58;43.43;;;25.67;;
3355;SDS011;1691;52.486;13.374;2023-03-21T03:36:33;34.90;;;26.20;;
3355;SDS011;1691;52.486;13.374;2023-03-21T03:39:07;32.70;;;24.83;;
3355;SDS011;1691;52.486;13.374;2023-03-21T03:41:44;39.60;;;27.50;;
3355;SDS011;1691;52.486;13.374;2023-03-21T03:44:50;38.37;;;24.73;;
3355;SDS011;1691;52.486;13.374;2023-03-21T03:50:38;36.07;;;24.50;;
3355;SDS011;1691;52.486;13.374;2023-03-21T03:53:16;39.20;;;24.90;;
3355;SDS011;1691;52.486;13.374;2023-03-21T03:55:52;32.80;;;24.10;;
3355;SDS011;1691;52.486;13.374;2023-03-21T03:58:22;41.63;;;25.53;;
3355;SDS011;1691;52.486;13.374;2023-03-21T04:01:04;36.10;;;26.00;;
3355;SDS011;1691;52.486;13.374;2023-03-21T04:03:36;43.73;;;26.30;;
3355;SDS011;1691;52.486;13.374;2023-03-21T04:06:15;39.97;;;24.50;;
3355;SDS011;1691;52.486;13.374;2023-03-21T04:08:44;36.53;;;24.30;;
3355;SDS011;1691;52.486;13.374;2023-03-21T04:11:12;33.47;;;24.10;;
3355;SDS011;1691;52.486;13.374;2023-03-21T04:13:43;33.13;;;23.40;;
3355;SDS011;1691;52.486;13.374;2023-03-21T04:16:10;34.90;;;24.57;;
3355;SDS011;1691;52.486;13.374;2023-03-21T04:18:38;31.40;;;24.00;;
3355;SDS011;1691;52.486;13.374;2023-03-21T04:21:07;39.63;;;26.57;;
3355;SDS011;1691;52.486;13.374;2023-03-21T04:23:36;27.80;;;22.73;;
3355;SDS011;1691;52.486;13.374;2023-03-21T04:26:03;31.83;;;23.13;;
3355;SDS011;1691;52.486;13.374;2023-03-21T04:28:32;35.60;;;24.03;;
3355;SDS011;1691;52.486;13.374;2023-03-21T04:31:03;32.87;;;23.30;;
3355;SDS011;1691;52.486;13.374;2023-03-21T04:33:47;32.27;;;23.33;;
3355;SDS011;1691;52.486;13.374;2023-03-21T04:36:15;35.30;;;21.60;;
3355;SDS011;1691;52.486;13.374;2023-03-21T04:38:52;31.90;;;21.80;;
3355;SDS011;1691;52.486;13.374;2023-03-21T04:41:22;36.57;;;23.13;;
3355;SDS011;1691;52.486;13.374;2023-03-21T04:43:49;36.70;;;23.73;;
3355;SDS011;1691;52.486;13.374;2023-03-21T04:46:17;40.40;;;24.00;;
3355;SDS011;1691;52.486;13.374;2023-03-21T04:48:45;38.13;;;24.70;;
3355;SDS011;1691;52.486;13.374;2023-03-21T04:51:12;36.13;;;22.93;;
3355;SDS011;1691;52.486;13.374;2023-03-21T04:53:39;40.27;;;24.57;;
3355;SDS011;1691;52.486;13.374;2023-03-21T04:56:10;39.50;;;22.93;;
3355;SDS011;1691;52.486;13.374;2023-03-21T04:58:38;31.17;;;23.60;;
3355;SDS011;1691;52.486;13.374;2023-03-21T05:01:07;41.47;;;24.60;;
3355;SDS011;1691;52.486;13.374;2023-03-21T05:03:34;30.80;;;22.43;;
3355;SDS011;1691;52.486;13.374;2023-03-21T05:06:06;34.63;;;23.33;;
3355;SDS011;1691;52.486;13.374;2023-03-21T05:08:35;30.57;;;23.30;;
3355;SDS011;1691;52.486;13.374;2023-03-21T05:11:02;31.37;;;24.27;;
3355;SDS011;1691;52.486;13.374;2023-03-21T05:13:30;31.77;;;23.40;;
3355;SDS011;1691;52.486;13.374;2023-03-21T05:15:57;33.67;;;24.20;;
3355;SDS011;1691;52.486;13.374;2023-03-21T05:18:24;33.53;;;24.00;;
3355;SDS011;1691;52.486;13.374;2023-03-21T05:20:52;28.30;;;21.77;;
3355;SDS011;1691;52.486;13.374;2023-03-21T05:23:20;38.90;;;24.77;;
3355;SDS011;1691;52.486;13.374;2023-03-21T05:25:49;43.33;;;23.60;;
3355;SDS011;1691;52.486;13.374;2023-03-21T05:28:16;35.27;;;24.47;;
3355;SDS011;1691;52.486;13.374;2023-03-21T05:30:44;33.33;;;22.83;;
3355;SDS011;1691;52.486;13.374;2023-03-21T05:33:12;38.13;;;24.17;;
3355;SDS011;1691;52.486;13.374;2023-03-21T05:35:39;35.00;;;24.73;;
3355;SDS011;1691;52.486;13.374;2023-03-21T05:38:06;30.73;;;22.70;;
3355;SDS011;1691;52.486;13.374;2023-03-21T05:40:34;38.10;;;25.20;;
3355;SDS011;1691;52.486;13.374;2023-03-21T05:43:01;40.30;;;25.00;;
3355;SDS011;1691;52.486;13.374;2023-03-21T05:45:28;41.23;;;26.40;;
3355;SDS011;1691;52.486;13.374;2023-03-21T05:47:55;39.50;;;23.70;;
3355;SDS011;1691;52.486;13.374;2023-03-21T05:50:22;44.63;;;24.30;;
3355;SDS011;1691;52.486;13.374;2023-03-21T05:52:49;42.17;;;24.10;;
3355;SDS011;1691;52.486;13.374;2023-03-21T05:55:16;34.37;;;23.50;;
3355;SDS011;1691;52.486;13.374;2023-03-21T05:57:43;34.93;;;24.30;;
3355;SDS011;1691;52.486;13.374;2023-03-21T06:00:10;49.43;;;23.50;;
3355;SDS011;1691;52.486;13.374;2023-03-21T06:02:38;42.23;;;24.53;;
3355;SDS011;1691;52.486;13.374;2023-03-21T06:05:06;46.37;;;25.27;;
3355;SDS011;1691;52.486;13.374;2023-03-21T06:07:33;30.47;;;22.43;;
3355;SDS011;1691;52.486;13.374;2023-03-21T06:10:03;38.80;;;24.03;;
3355;SDS011;1691;52.486;13.374;2023-03-21T06:12:31;43.33;;;25.63;;
3355;SDS011;1691;52.486;13.374;2023-03-21T06:15:02;36.40;;;24.07;;
3355;SDS011;1691;52.486;13.374;2023-03-21T06:17:31;34.33;;;23.60;;
3355;SDS011;1691;52.486;13.374;2023-03-21T06:19:58;37.87;;;23.90;;
3355;SDS011;1691;52.486;13.374;2023-03-21T06:22:30;39.77;;;22.53;;
3355;SDS011;1691;52.486;13.374;2023-03-21T06:24:58;38.70;;;24.53;;
3355;SDS011;1691;52.486;13.374;2023-03-21T06:27:25;36.13;;;23.03;;
3355;SDS011;1691;52.486;13.374;2023-03-21T06:29:52;35.60;;;22.83;;
3355;SDS011;1691;52.486;13.374;2023-03-21T06:32:19;36.23;;;23.67;;
3355;SDS011;1691;52.486;13.374;2023-03-21T06:34:47;33.13;;;22.67;;
3355;SDS011;1691;52.486;13.374;2023-03-21T06:37:14;34.27;;;24.17;;
3355;SDS011;1691;52.486;13.374;2023-03-21T06:39:41;33.10;;;22.90;;
3355;SDS011;1691;52.486;13.374;2023-03-21T06:42:09;40.40;;;24.50;;
3355;SDS011;1691;52.486;13.374;2023-03-21T06:44:36;41.77;;;26.47;;
3355;SDS011;1691;52.486;13.374;2023-03-21T06:47:04;53.27;;;34.63;;
3355;SDS011;1691;52.486;13.374;2023-03-21T06:49:32;48.47;;;27.57;;
3355;SDS011;1691;52.486;13.374;2023-03-21T06:51:59;39.83;;;26.57;;
3355;SDS011;1691;52.486;13.374;2023-03-21T06:54:27;37.90;;;25.80;;
3355;SDS011;1691;52.486;13.374;2023-03-21T06:56:54;40.47;;;26.90;;
3355;SDS011;1691;52.486;13.374;2023-03-21T06:59:21;36.70;;;25.47;;
3355;SDS011;1691;52.486;13.374;2023-03-21T07:01:49;40.50;;;26.27;;
3355;SDS011;1691;52.486;13.374;2023-03-21T07:04:16;35.03;;;25.43;;
3355;SDS011;1691;52.486;13.374;2023-03-21T07:06:43;49.00;;;27.70;;
3355;SDS011;1691;52.486;13.374;2023-03-21T07:09:10;46.40;;;29.30;;
3355;SDS011;1691;52.486;13.374;2023-03-21T07:11:37;42.10;;;27.77;;
3355;SDS011;1691;52.486;13.374;2023-03-21T07:14:04;47.33;;;27.17;;
3355;SDS011;1691;52.486;13.374;2023-03-21T07:16:32;39.53;;;26.27;;
3355;SDS011;1691;52.486;13.374;2023-03-21T07:18:59;43.83;;;27.30;;
3355;SDS011;1691;52.486;13.374;2023-03-21T07:21:26;42.40;;;27.10;;
3355;SDS011;1691;52.486;13.374;2023-03-21T07:23:53;39.77;;;26.80;;
3355;SDS011;1691;52.486;13.374;2023-03-21T07:26:20;44.10;;;27.83;;
3355;SDS011;1691;52.486;13.374;2023-03-21T07:28:48;37.37;;;25.43;;
3355;SDS011;1691;52.486;13.374;2023-03-21T07:31:15;41.10;;;27.50;;
3355;SDS011;1691;52.486;13.374;2023-03-21T07:33:42;37.17;;;25.17;;
3355;SDS011;1691;52.486;13.374;2023-03-21T07:36:13;47.33;;;27.87;;
3355;SDS011;1691;52.486;13.374;2023-03-21T07:38:42;42.33;;;27.33;;
3355;SDS011;1691;52.486;13.374;2023-03-21T07:41:10;40.83;;;27.23;;
3355;SDS011;1691;52.486;13.374;2023-03-21T07:43:38;50.87;;;31.13;;
3355;SDS011;1691;52.486;13.374;2023-03-21T07:46:06;38.60;;;27.70;;
3355;SDS011;1691;52.486;13.374;2023-03-21T07:48:33;54.67;;;35.00;;
3355;SDS011;1691;52.486;13.374;2023-03-21T07:51:00;44.67;;;29.23;;
3355;SDS011;1691;52.486;13.374;2023-03-21T07:53:27;49.13;;;28.73;;
3355;SDS011;1691;52.486;13.374;2023-03-21T07:55:54;39.27;;;25.70;;
3355;SDS011;1691;52.486;13.374;2023-03-21T07:58:22;41.33;;;26.47;;
3355;SDS011;1691;52.486;13.374;2023-03-21T08:00:50;51.93;;;24.90;;
3355;SDS011;1691;52.486;13.374;2023-03-21T08:03:18;38.93;;;27.70;;
3355;SDS011;1691;52.486;13.374;2023-03-21T08:05:45;40.27;;;25.57;;
3355;SDS011;1691;52.486;13.374;2023-03-21T08:08:12;39.77;;;27.10;;
3355;SDS011;1691;52.486;13.374;2023-03-21T08:10:41;37.03;;;26.30;;
3355;SDS011;1691;52.486;13.374;2023-03-21T08:13:09;38.70;;;26.13;;
3355;SDS011;1691;52.486;13.374;2023-03-21T08:15:37;36.33;;;24.70;;
3355;SDS011;1691;52.486;13.374;2023-03-21T08:18:07;39.77;;;25.47;;
3355;SDS011;1691;52.486;13.374;2023-03-21T08:20:35;37.73;;;25.63;;
3355;SDS011;1691;52.486;13.374;2023-03-21T08:23:02;36.13;;;25.63;;
3355;SDS011;1691;52.486;13.374;2023-03-21T08:25:30;42.67;;;26.10;;
3355;SDS011;1691;52.486;13.374;2023-03-21T08:27:57;48.87;;;27.83;;
3355;SDS011;1691;52.486;13.374;2023-03-21T08:30:25;43.17;;;28.90;;
3355;SDS011;1691;52.486;13.374;2023-03-21T08:32:57;53.67;;;30.53;;
3355;SDS011;1691;52.486;13.374;2023-03-21T08:35:27;48.10;;;29.17;;
3355;SDS011;1691;52.486;13.374;2023-03-21T08:37:55;39.40;;;27.20;;
3355;SDS011;1691;52.486;13.374;2023-03-21T08:40:22;44.33;;;26.17;;
3355;SDS011;1691;52.486;13.374;2023-03-21T08:42:49;38.00;;;26.10;;
3355;SDS011;1691;52.486;13.374;2023-03-21T08:45:16;42.87;;;26.77;;
3355;SDS011;1691;52.486;13.374;2023-03-21T08:47:44;39.23;;;26.70;;
3355;SDS011;1691;52.486;13.374;2023-03-21T08:50:14;34.40;;;24.23;;
3355;SDS011;1691;52.486;13.374;2023-03-21T08:52:44;68.77;;;25.23;;
3355;SDS011;1691;52.486;13.374;2023-03-21T08:55:12;39.30;;;24.10;;
3355;SDS011;1691;52.486;13.374;2023-03-21T08:57:41;37.57;;;22.63;;
3355;SDS011;1691;52.486;13.374;2023-03-21T09:00:10;33.40;;;23.80;;
3355;SDS011;1691;52.486;13.374;2023-03-21T09:02:44;43.43;;;23.27;;
3355;SDS011;1691;52.486;13.374;2023-03-21T09:05:13;35.80;;;23.03;;
3355;SDS011;1691;52.486;13.374;2023-03-21T09:07:42;32.07;;;22.53;;
3355;SDS011;1691;52.486;13.374;2023-03-21T09:10:12;37.97;;;22.70;;
3355;SDS011;1691;52.486;13.374;2023-03-21T09:12:48;35.03;;;23.07;;
3355;SDS011;1691;52.486;13.374;2023-03-21T09:15:17;31.47;;;22.40;;
3355;SDS011;1691;52.486;13.374;2023-03-21T09:17:47;36.60;;;23.40;;
3355;SDS011;1691;52.486;13.374;2023-03-21T09:20:18;30.83;;;21.03;;
3355;SDS011;1691;52.486;13.374;2023-03-21T09:22:52;32.53;;;21.67;;
3355;SDS011;1691;52.486;13.374;2023-03-21T09:25:19;39.53;;;21.43;;
3355;SDS011;1691;52.486;13.374;2023-03-21T09:27:46;30.70;;;21.17;;
3355;SDS011;1691;52.486;13.374;2023-03-21T09:30:18;32.13;;;22.90;;
3355;SDS011;1691;52.486;13.374;2023-03-21T09:32:50;35.73;;;23.10;;
3355;SDS011;1691;52.486;13.374;2023-03-21T09:35:19;55.60;;;33.90;;
3355;SDS011;1691;52.486;13.374;2023-03-21T09:37:47;31.80;;;22.83;;
3355;SDS011;1691;52.486;13.374;2023-03-21T09:40:16;35.60;;;20.73;;
3355;SDS011;1691;52.486;13.374;2023-03-21T09:45:39;32.13;;;20.40;;
3355;SDS011;1691;52.486;13.374;2023-03-21T09:51:34;30.00;;;20.30;;
3355;SDS011;1691;52.486;13.374;2023-03-21T09:54:07;25.93;;;20.37;;
3355;SDS011;1691;52.486;13.374;2023-03-21T09:56:44;30.03;;;21.33;;
3355;SDS011;1691;52.486;13.374;2023-03-21T09:59:20;32.40;;;20.20;;
3355;SDS011;1691;52.486;13.374;2023-03-21T10:02:01;28.20;;;20.90;;
3355;SDS011;1691;52.486;13.374;2023-03-21T10:04:29;33.53;;;22.80;;
3355;SDS011;1691;52.486;13.374;2023-03-21T10:06:58;30.37;;;21.80;;
3355;SDS011;1691;52.486;13.374;2023-03-21T10:09:27;30.73;;;21.80;;
3355;SDS011;1691;52.486;13.374;2023-03-21T10:12:02;30.80;;;20.90;;
3355;SDS011;1691;52.486;13.374;2023-03-21T10:14:46;27.63;;;20.67;;
3355;SDS011;1691;52.486;13.374;2023-03-21T10:17:37;27.67;;;20.97;;
3355;SDS011;1691;52.486;13.374;2023-03-21T10:20:16;30.73;;;21.80;;
3355;SDS011;1691;52.486;13.374;2023-03-21T10:22:49;30.43;;;20.03;;
3355;SDS011;1691;52.486;13.374;2023-03-21T10:25:30;33.93;;;20.60;;
3355;SDS011;1691;52.486;13.374;2023-03-21T10:28:15;28.53;;;20.70;;
3355;SDS011;1691;52.486;13.374;2023-03-21T10:33:19;28.27;;;20.53;;
3355;SDS011;1691;52.486;13.374;2023-03-21T10:35:58;26.80;;;18.70;;
3355;SDS011;1691;52.486;13.374;2023-03-21T10:39:10;27.23;;;18.90;;
3355;SDS011;1691;52.486;13.374;2023-03-21T10:41:53;27.17;;;18.00;;
3355;SDS011;1691;52.486;13.374;2023-03-21T10:44:20;21.87;;;17.27;;
3355;SDS011;1691;52.486;13.374;2023-03-21T10:46:55;31.00;;;18.10;;
3355;SDS011;1691;52.486;13.374;2023-03-21T10:49:30;27.17;;;17.90;;
3355;SDS011;1691;52.486;13.374;2023-03-21T10:52:06;29.13;;;18.00;;
3355;SDS011;1691;52.486;13.374;2023-03-21T10:54:44;26.83;;;18.70;;
3355;SDS011;1691;52.486;13.374;2023-03-21T10:57:22;23.50;;;17.10;;
3355;SDS011;1691;52.486;13.374;2023-03-21T10:59:52;25.63;;;18.40;;
3355;SDS011;1691;52.486;13.374;2023-03-21T11:02:33;23.60;;;18.97;;
3355;SDS011;1691;52.486;13.374;2023-03-21T11:05:04;24.67;;;18.20;;
3355;SDS011;1691;52.486;13.374;2023-03-21T11:07:40;24.80;;;18.37;;
3355;SDS011;1691;52.486;13.374;2023-03-21T11:10:11;30.77;;;18.07;;
3355;SDS011;1691;52.486;13.374;2023-03-21T11:12:53;22.73;;;17.63;;
3355;SDS011;1691;52.486;13.374;2023-03-21T11:18:13;47.57;;;27.57;;
3355;SDS011;1691;52.486;13.374;2023-03-21T11:20:51;24.50;;;17.90;;
3355;SDS011;1691;52.486;13.374;2023-03-21T11:23:25;21.90;;;16.90;;
3355;SDS011;1691;52.486;13.374;2023-03-21T11:25:55;24.70;;;18.40;;
3355;SDS011;1691;52.486;13.374;2023-03-21T11:28:31;19.73;;;16.13;;
3355;SDS011;1691;52.486;13.374;2023-03-21T11:31:02;20.80;;;16.53;;
3355;SDS011;1691;52.486;13.374;2023-03-21T11:33:35;24.33;;;15.87;;
3355;SDS011;1691;52.486;13.374;2023-03-21T11:38:48;21.50;;;15.93;;
3355;SDS011;1691;52.486;13.374;2023-03-21T11:41:23;27.07;;;16.47;;
3355;SDS011;1691;52.486;13.374;2023-03-21T11:43:56;19.07;;;16.30;;
3355;SDS011;1691;52.486;13.374;2023-03-21T11:46:29;20.80;;;16.03;;
3355;SDS011;1691;52.486;13.374;2023-03-21T11:48:58;19.50;;;15.00;;
3355;SDS011;1691;52.486;13.374;2023-03-21T11:52:02;21.80;;;17.33;;
3355;SDS011;1691;52.486;13.374;2023-03-21T12:00:11;15.77;;;14.13;;
3355;SDS011;1691;52.486;13.374;2023-03-21T12:05:42;23.30;;;15.50;;
3355;SDS011;1691;52.486;13.374;2023-03-21T12:11:19;17.40;;;15.70;;
3355;SDS011;1691;52.486;13.374;2023-03-21T12:14:27;17.60;;;15.63;;
3355;SDS011;1691;52.486;13.374;2023-03-21T12:20:25;20.23;;;16.37;;
3355;SDS011;1691;52.486;13.374;2023-03-21T12:34:40;21.53;;;15.03;;
3355;SDS011;1691;52.486;13.374;2023-03-21T12:37:49;19.67;;;15.50;;
3355;SDS011;1691;52.486;13.374;2023-03-21T12:43:48;17.20;;;15.43;;
3355;SDS011;1691;52.486;13.374;2023-03-21T12:46:36;16.60;;;13.60;;
3355;SDS011;1691;52.486;13.374;2023-03-21T12:49:37;24.50;;;13.70;;
3355;SDS011;1691;52.486;13.374;2023-03-21T12:52:14;17.27;;;14.30;;
3355;SDS011;1691;52.486;13.374;2023-03-21T12:55:02;17.77;;;12.53;;
3355;SDS011;1691;52.486;13.374;2023-03-21T12:57:45;20.93;;;13.93;;
3355;SDS011;1691;52.486;13.374;2023-03-21T13:00:40;13.37;;;12.17;;
3355;SDS011;1691;52.486;13.374;2023-03-21T13:03:31;20.90;;;12.73;;
3355;SDS011;1691;52.486;13.374;2023-03-21T13:06:09;25.60;;;14.23;;
3355;SDS011;1691;52.486;13.374;2023-03-21T13:08:57;14.73;;;13.20;;
3355;SDS011;1691;52.486;13.374;2023-03-21T13:11:34;13.93;;;12.47;;
3355;SDS011;1691;52.486;13.374;2023-03-21T13:14:16;14.50;;;13.10;;
3355;SDS011;1691;52.486;13.374;2023-03-21T13:16:51;13.53;;;12.10;;
3355;SDS011;1691;52.486;13.374;2023-03-21T13:19:29;13.90;;;11.57;;
3355;SDS011;1691;52.486;13.374;2023-03-21T13:22:14;12.37;;;10.80;;
3355;SDS011;1691;52.486;13.374;2023-03-21T13:24:56;11.97;;;10.77;;
3355;SDS011;1691;52.486;13.374;2023-03-21T13:27:35;13.90;;;11.90;;
3355;SDS011;1691;52.486;13.374;2023-03-21T13:32:40;11.93;;;10.83;;
3355;SDS011;1691;52.486;13.374;2023-03-21T13:35:23;15.10;;;11.80;;
3355;SDS011;1691;52.486;13.374;2023-03-21T13:54:01;12.40;;;10.67;;
3355;SDS011;1691;52.486;13.374;2023-03-21T14:04:41;10.70;;;9.80;;
3355;SDS011;1691;52.486;13.374;2023-03-21T14:07:30;11.00;;;9.20;;
3355;SDS011;1691;52.486;13.374;2023-03-21T14:12:47;12.93;;;9.83;;
3355;SDS011;1691;52.486;13.374;2023-03-21T14:17:56;12.67;;;11.30;;
3355;SDS011;1691;52.486;13.374;2023-03-21T14:20:36;10.73;;;9.63;;
3355;SDS011;1691;52.486;13.374;2023-03-21T14:23:07;10.97;;;9.83;;
3355;SDS011;1691;52.486;13.374;2023-03-21T14:25:40;10.27;;;9.43;;
3355;SDS011;1691;52.486;13.374;2023-03-21T14:28:26;13.90;;;9.67;;
3355;SDS011;1691;52.486;13.374;2023-03-21T14:30:57;12.37;;;9.57;;
3355;SDS011;1691;52.486;13.374;2023-03-21T14:33:28;13.87;;;9.43;;
3355;SDS011;1691;52.486;13.374;2023-03-21T14:36:11;9.43;;;8.83;;
3355;SDS011;1691;52.486;13.374;2023-03-21T14:38:42;10.57;;;9.37;;
3355;SDS011;1691;52.486;13.374;2023-03-21T14:41:30;13.20;;;9.17;;
3355;SDS011;1691;52.486;13.374;2023-03-21T14:44:10;10.70;;;9.10;;
3355;SDS011;1691;52.486;13.374;2023-03-21T14:46:58;10.33;;;9.33;;
3355;SDS011;1691;52.486;13.374;2023-03-21T14:49:42;9.23;;;8.47;;
3355;SDS011;1691;52.486;13.374;2023-03-21T14:52:10;9.80;;;8.80;;
3355;SDS011;1691;52.486;13.374;2023-03-21T14:54:43;10.37;;;9.13;;
3355;SDS011;1691;52.486;13.374;2023-03-21T14:57:13;12.20;;;9.97;;
3355;SDS011;1691;52.486;13.374;2023-03-21T14:59:51;14.90;;;10.07;;
3355;SDS011;1691;52.486;13.374;2023-03-21T15:02:26;10.90;;;8.97;;
3355;SDS011;1691;52.486;13.374;2023-03-21T15:07:53;13.20;;;8.50;;
3355;SDS011;1691;52.486;13.374;2023-03-21T15:10:24;9.20;;;8.30;;
3355;SDS011;1691;52.486;13.374;2023-03-21T15:12:58;11.77;;;9.10;;
3355;SDS011;1691;52.486;13.374;2023-03-21T15:15:28;11.83;;;9.33;;
3355;SDS011;1691;52.486;13.374;2023-03-21T15:17:59;14.83;;;7.80;;
3355;SDS011;1691;52.486;13.374;2023-03-21T15:20:31;8.43;;;7.90;;
3355;SDS011;1691;52.486;13.374;2023-03-21T15:23:04;12.60;;;8.00;;
3355;SDS011;1691;52.486;13.374;2023-03-21T15:25:38;8.40;;;7.67;;
3355;SDS011;1691;52.486;13.374;2023-03-21T15:28:06;8.40;;;7.73;;
3355;SDS011;1691;52.486;13.374;2023-03-21T15:30:33;8.53;;;7.93;;
3355;SDS011;1691;52.486;13.374;2023-03-21T15:33:04;9.93;;;9.03;;
3355;SDS011;1691;52.486;13.374;2023-03-21T15:35:36;10.53;;;8.00;;
3355;SDS011;1691;52.486;13.374;2023-03-21T15:38:32;12.13;;;9.10;;
3355;SDS011;1691;52.486;13.374;2023-03-21T15:43:47;11.80;;;7.63;;
3355;SDS011;1691;52.486;13.374;2023-03-21T15:46:37;10.83;;;8.97;;
3355;SDS011;1691;52.486;13.374;2023-03-21T15:51:42;8.60;;;7.70;;
3355;SDS011;1691;52.486;13.374;2023-03-21T15:54:22;8.07;;;7.13;;
3355;SDS011;1691;52.486;13.374;2023-03-21T15:56:58;10.33;;;8.27;;
3355;SDS011;1691;52.486;13.374;2023-03-21T15:59:35;10.83;;;7.80;;
3355;SDS011;1691;52.486;13.374;2023-03-21T16:02:14;12.73;;;8.83;;
3355;SDS011;1691;52.486;13.374;2023-03-21T16:07:26;9.53;;;8.23;;
3355;SDS011;1691;52.486;13.374;2023-03-21T16:09:58;13.27;;;8.53;;
3355;SDS011;1691;52.486;13.374;2023-03-21T16:12:29;10.13;;;9.27;;
3355;SDS011;1691;52.486;13.374;2023-03-21T16:14:56;8.93;;;8.13;;
3355;SDS011;1691;52.486;13.374;2023-03-21T16:17:33;10.77;;;9.63;;
3355;SDS011;1691;52.486;13.374;2023-03-21T16:20:18;15.33;;;11.10;;
3355;SDS011;1691;52.486;13.374;2023-03-21T16:22:48;10.70;;;9.67;;
3355;SDS011;1691;52.486;13.374;2023-03-21T16:25:16;18.00;;;10.30;;
3355;SDS011;1691;52.486;13.374;2023-03-21T16:27:45;12.70;;;11.40;;
3355;SDS011;1691;52.486;13.374;2023-03-21T16:30:14;12.77;;;11.10;;
3355;SDS011;1691;52.486;13.374;2023-03-21T16:32:45;13.63;;;11.50;;
3355;SDS011;1691;52.486;13.374;2023-03-21T16:35:13;17.73;;;12.20;;
3355;SDS011;1691;52.486;13.374;2023-03-21T16:37:41;14.50;;;13.07;;
3355;SDS011;1691;52.486;13.374;2023-03-21T16:40:10;20.70;;;13.67;;
3355;SDS011;1691;52.486;13.374;2023-03-21T16:42:54;15.77;;;14.17;;
3355;SDS011;1691;52.486;13.374;2023-03-21T16:45:21;16.27;;;14.30;;
3355;SDS011;1691;52.486;13.374;2023-03-21T16:47:49;22.97;;;15.50;;
3355;SDS011;1691;52.486;13.374;2023-03-21T16:50:31;16.87;;;15.20;;
3355;SDS011;1691;52.486;13.374;2023-03-21T16:53:07;17.90;;;16.30;;
3355;SDS011;1691;52.486;13.374;2023-03-21T16:55:35;18.23;;;16.37;;
3355;SDS011;1691;52.486;13.374;2023-03-21T16:58:05;18.80;;;17.07;;
3355;SDS011;1691;52.486;13.374;2023-03-21T17:00:32;20.67;;;17.60;;
3355;SDS011;1691;52.486;13.374;2023-03-21T17:03:01;19.63;;;17.70;;
3355;SDS011;1691;52.486;13.374;2023-03-21T17:05:38;17.70;;;15.90;;
3355;SDS011;1691;52.486;13.374;2023-03-21T17:08:05;18.60;;;16.80;;
3355;SDS011;1691;52.486;13.374;2023-03-21T17:10:32;19.70;;;17.40;;
3355;SDS011;1691;52.486;13.374;2023-03-21T17:12:59;18.27;;;15.87;;
3355;SDS011;1691;52.486;13.374;2023-03-21T17:15:26;30.27;;;17.93;;
3355;SDS011;1691;52.486;13.374;2023-03-21T17:17:54;24.43;;;18.17;;